Time,TemperatureF,DewpointF,PressureIn,WindDirection,WindDirectionDegrees,WindSpeedMPH,WindSpeedGustMPH,Humidity,HourlyPrecipIn,Conditions,Clouds,dailyrainin,SoftwareType,DateUTC
2013-11-30 00:22:00,24.0,14.0,30.73,NW,325,0.0,1.0,65,0.00,,,0.00,,2013-11-30 05:22:00,
2013-11-30 00:53:00,23.0,11.0,30.73,NNW,327,0.0,0.0,59,0.00,,,0.00,,2013-11-30 05:53:00,
2013-11-30 01:22:00,23.0,11.0,30.73,NNW,328,0.0,0.0,59,0.00,,,0.00,,2013-11-30 06:22:00,
2013-11-30 01:52:00,22.0,11.0,30.74,NNW,328,0.0,0.0,61,0.00,,,0.00,,2013-11-30 06:52:00,
2013-11-30 02:21:00,21.0,10.0,30.75,NNW,328,0.0,0.0,62,0.00,,,0.00,,2013-11-30 07:21:00,
2013-11-30 02:52:00,21.0,10.0,30.75,NNW,338,0.0,0.0,61,0.00,,,0.00,,2013-11-30 07:52:00,
2013-11-30 03:22:00,21.0,9.0,30.75,NNE,33,0.0,0.0,60,0.00,,,0.00,,2013-11-30 08:22:00,
2013-11-30 03:42:00,21.0,10.0,30.75,NNE,33,0.0,0.0,61,0.00,,,0.00,,2013-11-30 08:42:00,
2013-11-30 03:52:00,20.0,9.0,30.75,NNE,33,0.0,0.0,61,0.00,,,0.00,,2013-11-30 08:52:00,
2013-11-30 04:22:00,20.0,10.0,30.75,NNE,33,0.0,0.0,64,0.00,,,0.00,,2013-11-30 09:22:00,
2013-11-30 04:54:00,19.0,9.0,30.76,NNE,33,0.0,0.0,65,0.00,,,0.00,,2013-11-30 09:54:00,
2013-11-30 05:23:00,19.0,10.0,30.76,NNE,33,0.0,0.0,67,0.00,,,0.00,,2013-11-30 10:23:00,
2013-11-30 05:53:00,18.0,10.0,30.77,NNE,33,0.0,0.0,69,0.00,,,0.00,,2013-11-30 10:53:00,
2013-11-30 06:22:00,18.0,10.0,30.77,NNE,31,0.0,0.0,70,0.00,,,0.00,,2013-11-30 11:22:00,
2013-11-30 06:52:00,18.0,10.0,30.77,NNE,31,0.0,0.0,71,0.00,,,0.00,,2013-11-30 11:52:00,
2013-11-30 07:22:00,18.0,10.0,30.77,NNE,31,0.0,0.0,70,0.00,,,0.00,,2013-11-30 12:22:00,
2013-11-30 07:52:00,18.0,10.0,30.77,NNE,31,0.0,0.0,70,0.00,,,0.00,,2013-11-30 12:52:00,
2013-11-30 08:21:00,20.0,11.0,30.77,NNE,31,0.0,0.0,66,0.00,,,0.00,,2013-11-30 13:21:00,
2013-11-30 08:52:00,22.0,11.0,30.76,NE,48,0.0,4.0,63,0.00,,,0.00,,2013-11-30 13:52:00,
2013-11-30 09:22:00,24.0,13.0,30.77,NE,49,6.0,6.0,61,0.00,,,0.00,,2013-11-30 14:22:00,
2013-11-30 09:53:00,26.0,14.0,30.77,NNE,27,1.0,5.0,59,0.00,,,0.00,,2013-11-30 14:53:00,
2013-11-30 10:22:00,28.0,16.0,30.76,NNE,16,3.0,5.0,60,0.00,,,0.00,,2013-11-30 15:22:00,
2013-11-30 10:53:00,30.0,17.0,30.75,NE,54,0.0,6.0,59,0.00,,,0.00,,2013-11-30 15:53:00,
2013-11-30 11:23:00,31.0,18.0,30.74,East,82,0.0,6.0,59,0.00,,,0.00,,2013-11-30 16:23:00,
2013-11-30 11:43:00,32.0,20.0,30.73,SSE,156,0.0,0.0,60,0.00,,,0.00,,2013-11-30 16:43:00,
2013-11-30 11:52:00,32.0,18.0,30.73,SSE,158,0.0,0.0,56,0.00,,,0.00,,2013-11-30 16:52:00,
2013-11-30 12:22:00,33.0,19.0,30.71,SSE,147,0.0,0.0,55,0.00,,,0.00,,2013-11-30 17:22:00,
2013-11-30 12:53:00,33.0,22.0,30.70,ENE,75,0.0,7.0,64,0.00,,,0.00,,2013-11-30 17:53:00,
2013-11-30 13:22:00,34.0,23.0,30.68,ENE,78,7.0,7.0,63,0.00,,,0.00,,2013-11-30 18:22:00,
2013-11-30 13:52:00,34.0,23.0,30.66,ESE,104,0.0,4.0,65,0.00,,,0.00,,2013-11-30 18:52:00,
2013-11-30 14:21:00,34.0,24.0,30.64,NE,56,0.0,4.0,66,0.00,,,0.00,,2013-11-30 19:21:00,
2013-11-30 14:42:00,35.0,25.0,30.64,SSE,161,0.0,4.0,66,0.00,,,0.00,,2013-11-30 19:42:00,
2013-11-30 14:52:00,35.0,25.0,30.64,ESE,120,2.0,4.0,66,0.00,,,0.00,,2013-11-30 19:52:00,
2013-11-30 15:22:00,34.0,25.0,30.63,ESE,103,0.0,4.0,70,0.00,,,0.00,,2013-11-30 20:22:00,
2013-11-30 15:52:00,34.0,25.0,30.63,ESE,103,0.0,0.0,70,0.00,,,0.00,,2013-11-30 20:52:00,
2013-11-30 16:22:00,33.0,25.0,30.62,ESE,103,0.0,0.0,72,0.00,,,0.00,,2013-11-30 21:22:00,
2013-11-30 16:43:00,32.0,24.0,30.62,ESE,103,0.0,0.0,72,0.00,,,0.00,,2013-11-30 21:43:00,
2013-11-30 16:53:00,32.0,24.0,30.62,ESE,103,0.0,0.0,72,0.00,,,0.00,,2013-11-30 21:53:00,
2013-11-30 17:23:00,31.0,24.0,30.60,ESE,103,0.0,0.0,76,0.00,,,0.00,,2013-11-30 22:23:00,
2013-11-30 17:52:00,31.0,25.0,30.59,ESE,103,0.0,0.0,77,0.00,,,0.00,,2013-11-30 22:52:00,
2013-11-30 18:22:00,30.0,24.0,30.58,ESE,103,0.0,0.0,78,0.00,,,0.00,,2013-11-30 23:22:00,
2013-11-30 18:42:00,30.0,25.0,30.57,ESE,103,0.0,0.0,80,0.00,,,0.00,,2013-11-30 23:42:00,
2013-11-30 18:53:00,30.0,25.0,30.57,ESE,103,0.0,0.0,80,0.00,,,0.00,,2013-11-30 23:53:00,
2013-11-30 19:22:00,30.0,25.0,30.56,East,93,0.0,0.0,80,0.00,,,0.00,,2013-12-01 00:22:00,
2013-11-30 19:42:00,29.0,24.0,30.55,East,93,0.0,0.0,80,0.00,,,0.00,,2013-12-01 00:42:00,
2013-11-30 19:52:00,29.0,24.0,30.55,East,93,0.0,0.0,80,0.00,,,0.00,,2013-12-01 00:52:00,
2013-11-30 20:21:00,29.0,24.0,30.53,East,93,0.0,0.0,81,0.00,,,0.00,,2013-12-01 01:21:00,
2013-11-30 20:52:00,29.0,24.0,30.52,East,92,0.0,0.0,81,0.00,,,0.00,,2013-12-01 01:52:00,
2013-11-30 21:21:00,29.0,24.0,30.50,East,92,0.0,0.0,81,0.00,,,0.00,,2013-12-01 02:21:00,
2013-11-30 21:52:00,29.0,24.0,30.49,ENE,77,0.0,0.0,81,0.00,,,0.00,,2013-12-01 02:52:00,
2013-11-30 22:22:00,30.0,25.0,30.47,ENE,71,0.0,0.0,81,0.00,,,0.00,,2013-12-01 03:22:00,
2013-11-30 22:54:00,30.0,25.0,30.47,ENE,71,2.0,0.0,80,0.00,,,0.00,,2013-12-01 03:54:00,
2013-11-30 23:03:00,-999.0,-99.9,30.47,ENE,67,0.0,0.0,-999,0.00,,,0.00,,2013-12-01 04:03:00,
2013-11-30 23:23:00,31.0,26.0,30.46,ENE,67,0.0,0.0,80,0.00,,,0.00,,2013-12-01 04:23:00,
2013-11-30 23:52:00,40.0,31.0,30.44,SSE,166,0.0,0.0,71,0.00,,,0.00,,2013-12-01 04:52:00,